sensor_id;sensor_type;location;lat;lon;timestamp;pressure;altitude;pressure_sealevel;temperature;humidity
11519;BME280;5816;48.228;14.116;2023-02-02T05:40:58;98308.16;;;1.03;100.00
11519;BME280;5816;48.228;14.116;2023-02-02T05:46:00;98311.25;;;1.13;100.00
11519;BME280;5816;48.228;14.116;2023-02-02T05:51:02;98297.41;;;1.08;100.00
11519;BME280;5816;48.228;14.116;2023-02-02T05:56:05;98295.28;;;1.16;100.00
11519;BME280;5816;48.228;14.116;2023-02-02T06:01:07;98290.28;;;1.10;100.00
11519;BME280;5816;48.228;14.116;2023-02-02T06:06:09;98293.72;;;1.12;100.00
11519;BME280;5816;48.228;14.116;2023-02-02T06:11:14;98299.03;;;1.10;100.00
11519;BME280;5816;48.228;14.116;2023-02-02T06:16:16;98298.41;;;1.05;100.00
11519;BME280;5816;48.228;14.116;2023-02-02T06:21:17;98300.19;;;1.05;100.00
11519;BME280;5816;48.228;14.116;2023-02-02T06:26:20;98312.97;;;1.14;100.00
11519;BME280;5816;48.228;14.116;2023-02-02T06:31:22;98314.69;;;1.15;100.00
11519;BME280;5816;48.228;14.116;2023-02-02T06:36:25;98325.75;;;1.03;100.00
11519;BME280;5816;48.228;14.116;2023-02-02T06:41:28;98335.28;;;1.07;100.00
11519;BME280;5816;48.228;14.116;2023-02-02T06:46:30;98326.44;;;1.08;100.00
11519;BME280;5816;48.228;14.116;2023-02-02T06:51:32;98352.41;;;0.97;100.00
11519;BME280;5816;48.228;14.116;2023-02-02T06:56:33;98348.88;;;0.98;100.00
11519;BME280;5816;48.228;14.116;2023-02-02T07:01:35;98350.97;;;0.90;100.00
11519;BME280;5816;48.228;14.116;2023-02-02T07:06:38;98337.59;;;0.94;100.00
11519;BME280;5816;48.228;14.116;2023-02-02T07:11:40;98323.41;;;0.97;100.00
11519;BME280;5816;48.228;14.116;2023-02-02T07:16:45;98335.78;;;1.15;100.00
11519;BME280;5816;48.228;14.116;2023-02-02T07:21:47;98330.50;;;1.15;100.00
11519;BME280;5816;48.228;14.116;2023-02-02T07:26:49;98340.25;;;1.33;100.00
11519;BME280;5816;48.228;14.116;2023-02-02T07:31:50;98350.66;;;1.36;100.00
11519;BME280;5816;48.228;14.116;2023-02-02T07:36:52;98341.09;;;1.34;100.00
11519;BME280;5816;48.228;14.116;2023-02-02T07:41:54;98357.50;;;1.41;100.00
11519;BME280;5816;48.228;14.116;2023-02-02T07:46:55;98356.47;;;1.24;100.00
11519;BME280;5816;48.228;14.116;2023-02-02T07:51:57;98336.22;;;1.25;100.00
11519;BME280;5816;48.228;14.116;2023-02-02T07:56:59;98345.50;;;1.33;100.00
11519;BME280;5816;48.228;14.116;2023-02-02T08:02:02;98311.38;;;1.10;100.00
11519;BME280;5816;48.228;14.116;2023-02-02T08:07:04;98363.41;;;1.27;100.00
11519;BME280;5816;48.228;14.116;2023-02-02T08:12:06;98371.31;;;1.27;100.00
11519;BME280;5816;48.228;14.116;2023-02-02T08:17:08;98372.28;;;1.24;100.00
11519;BME280;5816;48.228;14.116;2023-02-02T08:22:10;98370.31;;;1.29;100.00
11519;BME280;5816;48.228;14.116;2023-02-02T08:27:11;98372.03;;;1.30;100.00
11519;BME280;5816;48.228;14.116;2023-02-02T08:32:13;98370.38;;;1.28;100.00
11519;BME280;5816;48.228;14.116;2023-02-02T08:37:15;98360.31;;;1.17;100.00
11519;BME280;5816;48.228;14.116;2023-02-02T08:42:17;98360.84;;;1.25;100.00
11519;BME280;5816;48.228;14.116;2023-02-02T08:47:19;98344.78;;;1.30;100.00
11519;BME280;5816;48.228;14.116;2023-02-02T08:52:21;98371.47;;;1.43;100.00
11519;BME280;5816;48.228;14.116;2023-02-02T08:57:26;98366.97;;;1.45;100.00
11519;BME280;5816;48.228;14.116;2023-02-02T09:02:29;98368.06;;;1.41;100.00
11519;BME280;5816;48.228;14.116;2023-02-02T09:07:31;98368.69;;;1.46;100.00
11519;BME280;5816;48.228;14.116;2023-02-02T09:12:33;98380.06;;;1.48;100.00
11519;BME280;5816;48.228;14.116;2023-02-02T09:17:34;98372.00;;;1.51;100.00
11519;BME280;5816;48.228;14.116;2023-02-02T09:22:36;98378.94;;;1.53;100.00
11519;BME280;5816;48.228;14.116;2023-02-02T09:27:38;98388.75;;;1.50;100.00
11519;BME280;5816;48.228;14.116;2023-02-02T09:32:41;98400.91;;;1.54;100.00
11519;BME280;5816;48.228;14.116;2023-02-02T09:37:43;98408.00;;;1.52;100.00
11519;BME280;5816;48.228;14.116;2023-02-02T09:48:56;98392.19;;;1.52;100.00
11519;BME280;5816;48.228;14.116;2023-02-02T09:58:42;98396.31;;;1.57;100.00
11519;BME280;5816;48.228;14.116;2023-02-02T10:03:55;98419.75;;;1.65;100.00
11519;BME280;5816;48.228;14.116;2023-02-02T10:14:26;98417.59;;;1.73;100.00
11519;BME280;5816;48.228;14.116;2023-02-02T10:19:28;98421.06;;;1.75;100.00
11519;BME280;5816;48.228;14.116;2023-02-02T10:24:32;98423.72;;;1.74;100.00
11519;BME280;5816;48.228;14.116;2023-02-02T10:45:50;98434.69;;;2.04;100.00
11519;BME280;5816;48.228;14.116;2023-02-02T10:50:56;98426.31;;;2.13;100.00
11519;BME280;5816;48.228;14.116;2023-02-02T10:56:10;98433.75;;;2.05;100.00
11519;BME280;5816;48.228;14.116;2023-02-02T11:01:14;98439.03;;;2.05;100.00
11519;BME280;5816;48.228;14.116;2023-02-02T11:06:18;98430.75;;;1.93;100.00
11519;BME280;5816;48.228;14.116;2023-02-02T11:11:40;98436.75;;;1.97;100.00
11519;BME280;5816;48.228;14.116;2023-02-02T11:16:44;98450.63;;;2.02;100.00
11519;BME280;5816;48.228;14.116;2023-02-02T11:21:51;98434.63;;;2.05;100.00
11519;BME280;5816;48.228;14.116;2023-02-02T11:26:58;98446.97;;;2.05;100.00
11519;BME280;5816;48.228;14.116;2023-02-02T11:37:22;98447.47;;;1.75;100.00
11519;BME280;5816;48.228;14.116;2023-02-02T11:42:24;98448.94;;;1.62;100.00
11519;BME280;5816;48.228;14.116;2023-02-02T11:47:31;98453.28;;;1.63;100.00
11519;BME280;5816;48.228;14.116;2023-02-02T11:52:33;98443.53;;;1.45;100.00
11519;BME280;5816;48.228;14.116;2023-02-02T11:57:35;98451.53;;;1.43;100.00
11519;BME280;5816;48.228;14.116;2023-02-02T12:02:45;98440.78;;;1.48;100.00
11519;BME280;5816;48.228;14.116;2023-02-02T12:07:47;98440.53;;;1.33;100.00
11519;BME280;5816;48.228;14.116;2023-02-02T12:55:51;98437.72;;;1.16;100.00
11519;BME280;5816;48.228;14.116;2023-02-02T13:01:19;98412.75;;;1.04;100.00
11519;BME280;5816;48.228;14.116;2023-02-02T13:11:55;98443.59;;;1.23;100.00
11519;BME280;5816;48.228;14.116;2023-02-02T13:17:08;98452.19;;;1.28;100.00
11519;BME280;5816;48.228;14.116;2023-02-02T13:22:16;98465.03;;;1.15;100.00
11519;BME280;5816;48.228;14.116;2023-02-02T13:27:20;98453.56;;;1.16;100.00
11519;BME280;5816;48.228;14.116;2023-02-02T13:32:32;98448.81;;;1.04;100.00
11519;BME280;5816;48.228;14.116;2023-02-02T13:42:53;98455.28;;;1.17;100.00
11519;BME280;5816;48.228;14.116;2023-02-02T13:48:24;98463.16;;;1.19;100.00
11519;BME280;5816;48.228;14.116;2023-02-02T13:59:07;98456.59;;;1.07;100.00
11519;BME280;5816;48.228;14.116;2023-02-02T14:04:29;98479.56;;;1.25;100.00
11519;BME280;5816;48.228;14.116;2023-02-02T14:09:34;98481.06;;;1.10;100.00
11519;BME280;5816;48.228;14.116;2023-02-02T14:14:38;98486.34;;;1.10;100.00
11519;BME280;5816;48.228;14.116;2023-02-02T14:19:49;98485.72;;;1.04;100.00
11519;BME280;5816;48.228;14.116;2023-02-02T14:24:51;98488.66;;;1.18;100.00
11519;BME280;5816;48.228;14.116;2023-02-02T14:29:59;98480.75;;;0.98;100.00
11519;BME280;5816;48.228;14.116;2023-02-02T14:50:15;98520.59;;;1.12;100.00
11519;BME280;5816;48.228;14.116;2023-02-02T14:55:18;98515.06;;;0.96;100.00
11519;BME280;5816;48.228;14.116;2023-02-02T15:00:29;98523.59;;;1.03;100.00
11519;BME280;5816;48.228;14.116;2023-02-02T15:05:33;98540.22;;;1.05;100.00
11519;BME280;5816;48.228;14.116;2023-02-02T15:16:14;98535.56;;;0.90;100.00
11519;BME280;5816;48.228;14.116;2023-02-02T15:21:21;98546.66;;;0.98;100.00
11519;BME280;5816;48.228;14.116;2023-02-02T15:26:27;98560.75;;;0.97;100.00
11519;BME280;5816;48.228;14.116;2023-02-02T15:31:47;98571.50;;;0.92;100.00
11519;BME280;5816;48.228;14.116;2023-02-02T15:36:56;98573.22;;;0.93;100.00
11519;BME280;5816;48.228;14.116;2023-02-02T15:42:02;98576.56;;;0.97;100.00
11519;BME280;5816;48.228;14.116;2023-02-02T15:47:32;98579.34;;;0.94;100.00
11519;BME280;5816;48.228;14.116;2023-02-02T15:52:34;98588.59;;;0.82;100.00
11519;BME280;5816;48.228;14.116;2023-02-02T15:57:47;98603.75;;;0.77;100.00
11519;BME280;5816;48.228;14.116;2023-02-02T16:02:52;98607.56;;;0.70;100.00
11519;BME280;5816;48.228;14.116;2023-02-02T16:07:55;98616.69;;;0.83;100.00
11519;BME280;5816;48.228;14.116;2023-02-02T16:13:06;98634.47;;;0.78;100.00
11519;BME280;5816;48.228;14.116;2023-02-02T16:18:12;98646.94;;;0.96;100.00
11519;BME280;5816;48.228;14.116;2023-02-02T16:23:22;98642.50;;;0.75;100.00
11519;BME280;5816;48.228;14.116;2023-02-02T16:28:30;98654.13;;;0.93;100.00
11519;BME280;5816;48.228;14.116;2023-02-02T16:38:36;98675.38;;;0.88;100.00
11519;BME280;5816;48.228;14.116;2023-02-02T16:43:40;98688.03;;;1.02;100.00
11519;BME280;5816;48.228;14.116;2023-02-02T16:49:06;98684.69;;;0.98;100.00
11519;BME280;5816;48.228;14.116;2023-02-02T16:59:24;98717.75;;;1.07;100.00
11519;BME280;5816;48.228;14.116;2023-02-02T17:04:29;98723.03;;;1.07;100.00
11519;BME280;5816;48.228;14.116;2023-02-02T17:09:37;98737.47;;;0.97;100.00
11519;BME280;5816;48.228;14.116;2023-02-02T17:14:53;98743.34;;;1.05;100.00
11519;BME280;5816;48.228;14.116;2023-02-02T17:19:57;98747.69;;;1.06;100.00
11519;BME280;5816;48.228;14.116;2023-02-02T17:24:59;98758.34;;;1.03;100.00
11519;BME280;5816;48.228;14.116;2023-02-02T17:30:02;98768.97;;;1.01;100.00
11519;BME280;5816;48.228;14.116;2023-02-02T17:35:15;98777.72;;;1.02;100.00
11519;BME280;5816;48.228;14.116;2023-02-02T17:40:19;98781.84;;;1.09;100.00
11519;BME280;5816;48.228;14.116;2023-02-02T17:45:23;98790.91;;;1.02;100.00
11519;BME280;5816;48.228;14.116;2023-02-02T17:50:29;98797.13;;;1.01;100.00
11519;BME280;5816;48.228;14.116;2023-02-02T17:55:36;98791.72;;;1.04;100.00
11519;BME280;5816;48.228;14.116;2023-02-02T18:00:38;98799.06;;;0.96;100.00
11519;BME280;5816;48.228;14.116;2023-02-02T18:05:40;98816.16;;;1.09;100.00
11519;BME280;5816;48.228;14.116;2023-02-02T18:10:44;98809.38;;;1.02;100.00
11519;BME280;5816;48.228;14.116;2023-02-02T18:15:47;98822.13;;;0.91;100.00
11519;BME280;5816;48.228;14.116;2023-02-02T18:20:49;98807.25;;;0.88;100.00
11519;BME280;5816;48.228;14.116;2023-02-02T18:25:51;98802.09;;;0.85;100.00
11519;BME280;5816;48.228;14.116;2023-02-02T18:30:53;98809.94;;;0.87;100.00
11519;BME280;5816;48.228;14.116;2023-02-02T18:35:55;98804.66;;;0.87;100.00
11519;BME280;5816;48.228;14.116;2023-02-02T18:40:57;98807.25;;;0.88;100.00
11519;BME280;5816;48.228;14.116;2023-02-02T18:46:01;98803.59;;;0.92;100.00
11519;BME280;5816;48.228;14.116;2023-02-02T18:51:15;98793.91;;;0.93;100.00
11519;BME280;5816;48.228;14.116;2023-02-02T18:56:18;98813.66;;;1.06;100.00
11519;BME280;5816;48.228;14.116;2023-02-02T19:01:21;98827.78;;;1.03;100.00
11519;BME280;5816;48.228;14.116;2023-02-02T19:06:26;98827.16;;;0.97;100.00
11519;BME280;5816;48.228;14.116;2023-02-02T19:11:48;98837.38;;;1.06;100.00
11519;BME280;5816;48.228;14.116;2023-02-02T19:16:51;98842.88;;;1.00;100.00
11519;BME280;5816;48.228;14.116;2023-02-02T19:21:56;98842.94;;;0.98;100.00
11519;BME280;5816;48.228;14.116;2023-02-02T19:26:58;98856.16;;;0.97;100.00
11519;BME280;5816;48.228;14.116;2023-02-02T19:32:04;98862.06;;;1.05;100.00
11519;BME280;5816;48.228;14.116;2023-02-02T19:37:22;98873.66;;;0.99;100.00
11519;BME280;5816;48.228;14.116;2023-02-02T19:42:27;98882.28;;;1.04;100.00
11519;BME280;5816;48.228;14.116;2023-02-02T19:47:32;98870.75;;;1.07;100.00
11519;BME280;5816;48.228;14.116;2023-02-02T19:52:34;98902.50;;;1.04;100.00
11519;BME280;5816;48.228;14.116;2023-02-02T19:57:35;98872.09;;;0.94;100.00
11519;BME280;5816;48.228;14.116;2023-02-02T20:03:01;98908.69;;;1.03;100.00
11519;BME280;5816;48.228;14.116;2023-02-02T20:13:20;98928.38;;;1.19;100.00
11519;BME280;5816;48.228;14.116;2023-02-02T20:18:26;98926.09;;;1.08;100.00
11519;BME280;5816;48.228;14.116;2023-02-02T20:28:37;98942.06;;;1.05;100.00
11519;BME280;5816;48.228;14.116;2023-02-02T20:33:46;98957.03;;;1.05;100.00
11519;BME280;5816;48.228;14.116;2023-02-02T20:38:48;98962.19;;;1.08;100.00
11519;BME280;5816;48.228;14.116;2023-02-02T20:43:50;98968.84;;;1.18;100.00
11519;BME280;5816;48.228;14.116;2023-02-02T20:48:51;98975.97;;;1.16;100.00
11519;BME280;5816;48.228;14.116;2023-02-02T20:53:53;98975.97;;;1.16;100.00
11519;BME280;5816;48.228;14.116;2023-02-02T20:58:55;98982.09;;;1.17;100.00
11519;BME280;5816;48.228;14.116;2023-02-02T21:03:57;98986.53;;;1.16;100.00
11519;BME280;5816;48.228;14.116;2023-02-02T21:08:59;98986.63;;;1.13;100.00
11519;BME280;5816;48.228;14.116;2023-02-02T21:14:01;98998.78;;;1.17;100.00
11519;BME280;5816;48.228;14.116;2023-02-02T21:19:02;99003.25;;;1.15;100.00
11519;BME280;5816;48.228;14.116;2023-02-02T21:24:04;99006.03;;;1.12;100.00
11519;BME280;5816;48.228;14.116;2023-02-02T21:29:06;99006.03;;;1.12;100.00
11519;BME280;5816;48.228;14.116;2023-02-02T21:34:08;99007.63;;;1.16;100.00
11519;BME280;5816;48.228;14.116;2023-02-02T21:39:21;99010.53;;;1.08;100.00
11519;BME280;5816;48.228;14.116;2023-02-02T21:44:25;99006.09;;;1.09;100.00
11519;BME280;5816;48.228;14.116;2023-02-02T21:49:36;99021.13;;;1.07;100.00
11519;BME280;5816;48.228;14.116;2023-02-02T21:54:38;99018.59;;;1.04;100.00
11519;BME280;5816;48.228;14.116;2023-02-02T21:59:40;99034.22;;;1.10;100.00
11519;BME280;5816;48.228;14.116;2023-02-02T22:04:42;99027.22;;;1.09;100.00
11519;BME280;5816;48.228;14.116;2023-02-02T22:09:44;99041.97;;;1.15;100.00
11519;BME280;5816;48.228;14.116;2023-02-02T22:14:47;99017.91;;;0.99;100.00
